sensor_id;sensor_type;location;lat;lon;timestamp;pressure;altitude;pressure_sealevel;temperature;humidity
20350;BME280;10332;50.208;18.988;2023-04-01T00:01:02;96303.81;;;10.48;82.34
20350;BME280;10332;50.208;18.988;2023-04-01T00:03:30;96317.06;;;10.37;83.01
20350;BME280;10332;50.208;18.988;2023-04-01T00:06:01;96301.81;;;10.42;82.79
20350;BME280;10332;50.208;18.988;2023-04-01T00:08:29;96304.72;;;10.39;83.04
20350;BME280;10332;50.208;18.988;2023-04-01T00:10:57;96309.66;;;10.42;82.96
20350;BME280;10332;50.208;18.988;2023-04-01T00:13:26;96301.81;;;10.42;83.26
20350;BME280;10332;50.208;18.988;2023-04-01T00:15:55;96306.72;;;10.28;83.97
20350;BME280;10332;50.208;18.988;2023-04-01T00:18:24;96304.84;;;10.38;83.65
20350;BME280;10332;50.208;18.988;2023-04-01T00:20:52;96304.34;;;10.34;83.60
20350;BME280;10332;50.208;18.988;2023-04-01T00:23:20;96304.25;;;10.26;84.04
20350;BME280;10332;50.208;18.988;2023-04-01T00:25:48;96302.34;;;10.18;84.65
20350;BME280;10332;50.208;18.988;2023-04-01T00:28:19;96304.78;;;10.20;84.47
20350;BME280;10332;50.208;18.988;2023-04-01T00:30:47;96297.69;;;10.22;84.73
20350;BME280;10332;50.208;18.988;2023-04-01T00:33:15;96299.88;;;10.17;85.13
20350;BME280;10332;50.208;18.988;2023-04-01T00:35:44;96305.97;;;10.35;84.51
20350;BME280;10332;50.208;18.988;2023-04-01T00:38:12;96300.94;;;10.24;84.88
20350;BME280;10332;50.208;18.988;2023-04-01T00:40:43;96299.72;;;10.18;85.02
20350;BME280;10332;50.208;18.988;2023-04-01T00:43:18;96293.91;;;10.07;85.56
20350;BME280;10332;50.208;18.988;2023-04-01T00:45:48;96287.84;;;10.06;85.72
20350;BME280;10332;50.208;18.988;2023-04-01T00:48:20;96295.16;;;10.03;85.88
20350;BME280;10332;50.208;18.988;2023-04-01T00:51:02;96300.31;;;10.12;85.12
20350;BME280;10332;50.208;18.988;2023-04-01T00:53:34;96305.97;;;10.08;85.63
20350;BME280;10332;50.208;18.988;2023-04-01T00:56:10;96308.38;;;9.91;86.41
20350;BME280;10332;50.208;18.988;2023-04-01T00:58:47;96312.19;;;9.97;86.29
20350;BME280;10332;50.208;18.988;2023-04-01T01:01:16;96316.72;;;9.95;86.33
20350;BME280;10332;50.208;18.988;2023-04-01T01:03:43;96316.53;;;10.06;86.00
20350;BME280;10332;50.208;18.988;2023-04-01T01:06:39;96316.41;;;10.08;85.72
20350;BME280;10332;50.208;18.988;2023-04-01T01:09:28;96317.84;;;9.92;86.35
20350;BME280;10332;50.208;18.988;2023-04-01T01:12:18;96311.47;;;10.05;86.13
20350;BME280;10332;50.208;18.988;2023-04-01T01:15:12;96313.97;;;9.96;86.47
20350;BME280;10332;50.208;18.988;2023-04-01T01:24:26;96312.00;;;10.08;85.87
20350;BME280;10332;50.208;18.988;2023-04-01T01:27:03;96300.22;;;10.04;85.86
20350;BME280;10332;50.208;18.988;2023-04-01T01:32:59;96304.00;;;9.92;86.75
20350;BME280;10332;50.208;18.988;2023-04-01T01:35:38;96287.09;;;9.96;86.67
20350;BME280;10332;50.208;18.988;2023-04-01T01:38:14;96287.69;;;9.90;86.93
20350;BME280;10332;50.208;18.988;2023-04-01T01:40:49;96287.63;;;10.00;86.44
20350;BME280;10332;50.208;18.988;2023-04-01T01:43:25;96286.50;;;10.02;86.18
20350;BME280;10332;50.208;18.988;2023-04-01T01:46:01;96291.22;;;9.99;86.75
20350;BME280;10332;50.208;18.988;2023-04-01T01:48:32;96298.22;;;9.98;86.67
20350;BME280;10332;50.208;18.988;2023-04-01T01:51:00;96287.94;;;9.87;87.25
20350;BME280;10332;50.208;18.988;2023-04-01T01:53:28;96288.50;;;9.90;86.96
20350;BME280;10332;50.208;18.988;2023-04-01T01:55:55;96286.72;;;9.91;87.02
20350;BME280;10332;50.208;18.988;2023-04-01T01:58:35;96293.88;;;9.79;87.53
20350;BME280;10332;50.208;18.988;2023-04-01T02:01:31;96289.41;;;9.72;87.79
20350;BME280;10332;50.208;18.988;2023-04-01T02:04:02;96289.84;;;9.67;88.12
20350;BME280;10332;50.208;18.988;2023-04-01T02:06:34;96293.34;;;9.76;87.56
20350;BME280;10332;50.208;18.988;2023-04-01T02:09:07;96294.75;;;9.70;87.88
20350;BME280;10332;50.208;18.988;2023-04-01T02:11:49;96297.53;;;9.59;88.54
20350;BME280;10332;50.208;18.988;2023-04-01T02:14:30;96302.72;;;9.68;88.25
20350;BME280;10332;50.208;18.988;2023-04-01T02:17:24;96303.53;;;9.69;88.08
20350;BME280;10332;50.208;18.988;2023-04-01T02:20:02;96297.97;;;9.54;88.71
20350;BME280;10332;50.208;18.988;2023-04-01T02:22:37;96291.34;;;9.60;88.66
20350;BME280;10332;50.208;18.988;2023-04-01T02:25:12;96307.25;;;9.66;88.32
20350;BME280;10332;50.208;18.988;2023-04-01T02:27:43;96294.75;;;9.70;88.35
20350;BME280;10332;50.208;18.988;2023-04-01T02:30:15;96302.84;;;9.67;88.63
20350;BME280;10332;50.208;18.988;2023-04-01T02:32:43;96304.09;;;9.73;88.25
20350;BME280;10332;50.208;18.988;2023-04-01T02:35:15;96323.81;;;9.75;88.11
20350;BME280;10332;50.208;18.988;2023-04-01T02:37:46;96309.25;;;9.82;87.75
20350;BME280;10332;50.208;18.988;2023-04-01T02:40:17;96311.91;;;9.73;88.41
20350;BME280;10332;50.208;18.988;2023-04-01T02:42:45;96311.91;;;9.73;88.29
20350;BME280;10332;50.208;18.988;2023-04-01T02:45:14;96313.78;;;9.80;88.31
20350;BME280;10332;50.208;18.988;2023-04-01T02:47:41;96317.06;;;9.82;88.08
20350;BME280;10332;50.208;18.988;2023-04-01T02:50:09;96314.00;;;9.87;87.89
20350;BME280;10332;50.208;18.988;2023-04-01T02:52:37;96316.06;;;9.93;87.82
20350;BME280;10332;50.208;18.988;2023-04-01T02:55:07;96315.44;;;9.81;88.20
20350;BME280;10332;50.208;18.988;2023-04-01T02:57:34;96312.28;;;9.78;88.02
20350;BME280;10332;50.208;18.988;2023-04-01T03:00:03;96319.28;;;9.77;88.29
20350;BME280;10332;50.208;18.988;2023-04-01T03:02:31;96321.75;;;9.69;88.45
20350;BME280;10332;50.208;18.988;2023-04-01T03:04:58;96317.34;;;9.79;88.21
20350;BME280;10332;50.208;18.988;2023-04-01T03:07:26;96323.13;;;9.73;88.34
20350;BME280;10332;50.208;18.988;2023-04-01T03:09:53;96323.06;;;9.92;87.95
20350;BME280;10332;50.208;18.988;2023-04-01T03:12:21;96319.94;;;9.89;87.98
20350;BME280;10332;50.208;18.988;2023-04-01T03:14:48;96322.84;;;10.04;87.13
20350;BME280;10332;50.208;18.988;2023-04-01T03:17:15;96325.41;;;9.86;88.09
20350;BME280;10332;50.208;18.988;2023-04-01T03:19:43;96324.06;;;9.82;88.50
20350;BME280;10332;50.208;18.988;2023-04-01T03:22:11;96327.00;;;9.96;88.19
20350;BME280;10332;50.208;18.988;2023-04-01T03:24:39;96327.00;;;9.96;87.75
20350;BME280;10332;50.208;18.988;2023-04-01T03:27:06;96326.47;;;9.93;88.17
20350;BME280;10332;50.208;18.988;2023-04-01T03:29:33;96323.56;;;9.96;88.10
20350;BME280;10332;50.208;18.988;2023-04-01T03:32:01;96319.34;;;9.95;88.28
20350;BME280;10332;50.208;18.988;2023-04-01T03:34:28;96335.78;;;9.95;88.33
20350;BME280;10332;50.208;18.988;2023-04-01T03:36:56;96332.31;;;10.05;87.66
20350;BME280;10332;50.208;18.988;2023-04-01T03:39:24;96327.00;;;9.96;88.12
20350;BME280;10332;50.208;18.988;2023-04-01T03:41:52;96324.66;;;10.03;88.13
20350;BME280;10332;50.208;18.988;2023-04-01T03:44:19;96330.09;;;10.10;88.15
20350;BME280;10332;50.208;18.988;2023-04-01T03:46:47;96324.78;;;10.02;88.17
20350;BME280;10332;50.208;18.988;2023-04-01T03:49:14;96329.25;;;9.91;88.72
20350;BME280;10332;50.208;18.988;2023-04-01T03:51:43;96323.63;;;9.86;89.11
20350;BME280;10332;50.208;18.988;2023-04-01T03:54:11;96326.78;;;9.90;89.13
20350;BME280;10332;50.208;18.988;2023-04-01T03:56:39;96326.13;;;9.78;89.91
20350;BME280;10332;50.208;18.988;2023-04-01T03:59:08;96327.97;;;9.95;89.15
20350;BME280;10332;50.208;18.988;2023-04-01T04:01:35;96320.03;;;9.87;89.54
20350;BME280;10332;50.208;18.988;2023-04-01T04:04:03;96336.19;;;10.01;89.27
20350;BME280;10332;50.208;18.988;2023-04-01T04:06:33;96326.06;;;9.98;88.88
20350;BME280;10332;50.208;18.988;2023-04-01T04:09:00;96322.19;;;10.02;88.50
20350;BME280;10332;50.208;18.988;2023-04-01T04:11:30;96319.22;;;9.87;89.20
20350;BME280;10332;50.208;18.988;2023-04-01T04:13:59;96327.16;;;9.95;89.02
20350;BME280;10332;50.208;18.988;2023-04-01T04:16:26;96329.34;;;10.00;88.31
20350;BME280;10332;50.208;18.988;2023-04-01T04:18:54;96321.25;;;9.93;88.86
20350;BME280;10332;50.208;18.988;2023-04-01T04:21:21;96324.59;;;9.85;89.13
20350;BME280;10332;50.208;18.988;2023-04-01T04:23:49;96331.16;;;9.89;88.87
20350;BME280;10332;50.208;18.988;2023-04-01T04:26:17;96319.19;;;9.96;88.70
20350;BME280;10332;50.208;18.988;2023-04-01T04:28:45;96325.00;;;9.90;89.20
20350;BME280;10332;50.208;18.988;2023-04-01T04:31:19;96323.06;;;9.92;88.95
20350;BME280;10332;50.208;18.988;2023-04-01T04:33:48;96323.22;;;9.91;89.30
20350;BME280;10332;50.208;18.988;2023-04-01T04:36:16;96318.75;;;10.01;88.80
20350;BME280;10332;50.208;18.988;2023-04-01T04:38:43;96321.25;;;10.20;88.00
20350;BME280;10332;50.208;18.988;2023-04-01T04:41:15;96324.03;;;10.19;87.89
20350;BME280;10332;50.208;18.988;2023-04-01T04:43:54;96319.13;;;10.06;88.29
20350;BME280;10332;50.208;18.988;2023-04-01T04:46:23;96325.19;;;10.07;88.26
20350;BME280;10332;50.208;18.988;2023-04-01T04:48:51;96317.22;;;10.08;88.48
20350;BME280;10332;50.208;18.988;2023-04-01T04:51:20;96332.41;;;10.13;87.98
20350;BME280;10332;50.208;18.988;2023-04-01T04:53:49;96318.25;;;10.25;87.75
20350;BME280;10332;50.208;18.988;2023-04-01T04:56:22;96319.09;;;10.26;87.49
20350;BME280;10332;50.208;18.988;2023-04-01T04:58:49;96323.94;;;10.38;87.09
20350;BME280;10332;50.208;18.988;2023-04-01T05:01:18;96320.28;;;10.49;86.26
20350;BME280;10332;50.208;18.988;2023-04-01T05:03:46;96329.88;;;10.31;86.71
20350;BME280;10332;50.208;18.988;2023-04-01T05:06:16;96321.63;;;10.35;86.61
20350;BME280;10332;50.208;18.988;2023-04-01T05:08:45;96329.31;;;10.55;85.91
20350;BME280;10332;50.208;18.988;2023-04-01T05:11:16;96331.47;;;10.59;85.73
20350;BME280;10332;50.208;18.988;2023-04-01T05:13:45;96326.78;;;10.63;85.60
20350;BME280;10332;50.208;18.988;2023-04-01T05:16:19;96334.91;;;10.77;84.88
20350;BME280;10332;50.208;18.988;2023-04-01T05:18:47;96330.06;;;10.83;84.79
20350;BME280;10332;50.208;18.988;2023-04-01T05:21:15;96340.94;;;11.14;83.26
20350;BME280;10332;50.208;18.988;2023-04-01T05:23:43;96334.50;;;11.26;82.66
20350;BME280;10332;50.208;18.988;2023-04-01T05:26:14;96333.19;;;11.48;81.94
20350;BME280;10332;50.208;18.988;2023-04-01T05:28:42;96335.34;;;11.52;81.55
20350;BME280;10332;50.208;18.988;2023-04-01T05:31:09;96332.34;;;11.73;80.54
20350;BME280;10332;50.208;18.988;2023-04-01T05:33:37;96337.19;;;11.86;80.29
20350;BME280;10332;50.208;18.988;2023-04-01T05:36:12;96338.94;;;11.51;80.85
20350;BME280;10332;50.208;18.988;2023-04-01T05:38:41;96345.81;;;11.52;80.93
20350;BME280;10332;50.208;18.988;2023-04-01T05:41:10;96343.06;;;11.36;81.39
20350;BME280;10332;50.208;18.988;2023-04-01T05:43:39;96352.97;;;11.24;82.06
20350;BME280;10332;50.208;18.988;2023-04-01T05:46:07;96347.03;;;11.22;82.04
20350;BME280;10332;50.208;18.988;2023-04-01T05:48:35;96334.16;;;10.85;83.28
20350;BME280;10332;50.208;18.988;2023-04-01T05:51:03;96342.06;;;10.93;83.65
20350;BME280;10332;50.208;18.988;2023-04-01T05:53:31;96348.78;;;10.96;83.69
20350;BME280;10332;50.208;18.988;2023-04-01T05:56:03;96350.66;;;11.03;83.11
20350;BME280;10332;50.208;18.988;2023-04-01T05:58:31;96344.25;;;10.98;83.38
20350;BME280;10332;50.208;18.988;2023-04-01T06:01:10;96350.56;;;10.95;84.02
20350;BME280;10332;50.208;18.988;2023-04-01T06:03:42;96350.28;;;10.98;83.67
20350;BME280;10332;50.208;18.988;2023-04-01T06:06:17;96352.38;;;10.77;84.20
20350;BME280;10332;50.208;18.988;2023-04-01T06:08:48;96359.09;;;10.97;83.82
20350;BME280;10332;50.208;18.988;2023-04-01T06:12:06;96356.25;;;10.91;84.03
20350;BME280;10332;50.208;18.988;2023-04-01T06:31:47;96361.47;;;11.08;83.74
20350;BME280;10332;50.208;18.988;2023-04-01T06:34:51;96368.75;;;11.05;83.89
20350;BME280;10332;50.208;18.988;2023-04-01T06:37:57;96371.53;;;11.21;83.37
20350;BME280;10332;50.208;18.988;2023-04-01T06:41:14;96367.72;;;11.33;83.59
20350;BME280;10332;50.208;18.988;2023-04-01T06:44:31;96364.09;;;11.78;82.01
20350;BME280;10332;50.208;18.988;2023-04-01T06:50:40;96360.56;;;12.13;80.09
20350;BME280;10332;50.208;18.988;2023-04-01T06:55:57;96364.41;;;12.01;80.46
20350;BME280;10332;50.208;18.988;2023-04-01T06:58:44;96367.78;;;11.93;80.67
20350;BME280;10332;50.208;18.988;2023-04-01T07:01:40;96367.53;;;11.79;81.96
20350;BME280;10332;50.208;18.988;2023-04-01T07:04:31;96365.72;;;11.79;81.74
20350;BME280;10332;50.208;18.988;2023-04-01T07:07:19;96370.59;;;12.00;80.74
20350;BME280;10332;50.208;18.988;2023-04-01T07:09:53;96380.38;;;12.24;80.55
20350;BME280;10332;50.208;18.988;2023-04-01T07:12:55;96383.94;;;12.15;80.43
20350;BME280;10332;50.208;18.988;2023-04-01T07:15:37;96381.53;;;12.30;80.17
20350;BME280;10332;50.208;18.988;2023-04-01T07:18:30;96388.59;;;12.03;81.55
20350;BME280;10332;50.208;18.988;2023-04-01T07:21:01;96386.97;;;12.02;82.11
20350;BME280;10332;50.208;18.988;2023-04-01T07:23:38;96387.44;;;11.98;82.28
20350;BME280;10332;50.208;18.988;2023-04-01T07:26:27;96384.22;;;12.12;80.91
20350;BME280;10332;50.208;18.988;2023-04-01T07:28:54;96375.31;;;12.31;80.43
20350;BME280;10332;50.208;18.988;2023-04-01T07:34:43;96405.81;;;12.48;79.55
20350;BME280;10332;50.208;18.988;2023-04-01T07:43:10;96408.44;;;12.14;80.55
20350;BME280;10332;50.208;18.988;2023-04-01T07:49:22;96397.63;;;12.43;80.74
20350;BME280;10332;50.208;18.988;2023-04-01T07:52:05;96394.53;;;12.56;80.55
20350;BME280;10332;50.208;18.988;2023-04-01T07:54:42;96403.28;;;12.72;80.41
20350;BME280;10332;50.208;18.988;2023-04-01T08:05:58;96418.31;;;12.62;80.92
20350;BME280;10332;50.208;18.988;2023-04-01T08:11:46;96405.50;;;12.51;81.41
20350;BME280;10332;50.208;18.988;2023-04-01T08:14:28;96408.94;;;12.52;81.93
20350;BME280;10332;50.208;18.988;2023-04-01T08:17:02;96412.38;;;12.52;82.00
20350;BME280;10332;50.208;18.988;2023-04-01T08:22:18;96416.94;;;13.08;78.87
20350;BME280;10332;50.208;18.988;2023-04-01T08:24:49;96412.59;;;13.66;76.51
20350;BME280;10332;50.208;18.988;2023-04-01T08:27:35;96422.16;;;14.23;74.25
20350;BME280;10332;50.208;18.988;2023-04-01T08:30:26;96423.97;;;14.14;74.09
20350;BME280;10332;50.208;18.988;2023-04-01T08:33:13;96421.13;;;14.48;73.50
20350;BME280;10332;50.208;18.988;2023-04-01T08:35:50;96437.00;;;14.94;71.49
20350;BME280;10332;50.208;18.988;2023-04-01T08:38:38;96419.53;;;14.70;71.26
20350;BME280;10332;50.208;18.988;2023-04-01T08:59:21;96425.91;;;15.07;73.99
20350;BME280;10332;50.208;18.988;2023-04-01T09:06:05;96419.28;;;16.76;67.85
20350;BME280;10332;50.208;18.988;2023-04-01T09:26:12;96410.88;;;23.38;45.13
20350;BME280;10332;50.208;18.988;2023-04-01T09:43:44;96443.78;;;15.34;70.05
20350;BME280;10332;50.208;18.988;2023-04-01T09:46:14;96430.38;;;17.44;64.78
20350;BME280;10332;50.208;18.988;2023-04-01T09:54:57;96423.72;;;22.37;50.60
20350;BME280;10332;50.208;18.988;2023-04-01T10:47:16;96430.09;;;29.15;39.03
20350;BME280;10332;50.208;18.988;2023-04-01T10:50:21;96437.16;;;38.08;25.28
20350;BME280;10332;50.208;18.988;2023-04-01T11:11:04;96441.44;;;24.42;39.97
20350;BME280;10332;50.208;18.988;2023-04-01T11:26:12;96436.84;;;33.58;26.89
20350;BME280;10332;50.208;18.988;2023-04-01T11:35:15;96440.38;;;24.43;39.31
20350;BME280;10332;50.208;18.988;2023-04-01T11:38:15;96434.28;;;23.89;40.67
20350;BME280;10332;50.208;18.988;2023-04-01T11:41:02;96428.50;;;21.79;42.81
20350;BME280;10332;50.208;18.988;2023-04-01T11:46:27;96443.47;;;19.12;49.76
20350;BME280;10332;50.208;18.988;2023-04-01T12:01:38;96447.81;;;22.43;50.14
20350;BME280;10332;50.208;18.988;2023-04-01T12:06:54;96434.38;;;26.69;39.18
20350;BME280;10332;50.208;18.988;2023-04-01T12:10:36;96441.03;;;29.81;34.50
20350;BME280;10332;50.208;18.988;2023-04-01T12:13:31;96444.78;;;24.73;40.70
20350;BME280;10332;50.208;18.988;2023-04-01T12:16:39;96456.47;;;21.81;47.70
20350;BME280;10332;50.208;18.988;2023-04-01T12:31:22;96463.34;;;18.60;60.83
20350;BME280;10332;50.208;18.988;2023-04-01T12:52:12;96462.16;;;18.97;56.81
20350;BME280;10332;50.208;18.988;2023-04-01T13:03:53;96469.97;;;16.63;62.88
20350;BME280;10332;50.208;18.988;2023-04-01T13:07:10;96467.63;;;16.68;62.25
20350;BME280;10332;50.208;18.988;2023-04-01T13:09:57;96472.97;;;16.75;61.65
20350;BME280;10332;50.208;18.988;2023-04-01T13:12:36;96478.13;;;16.39;61.80
20350;BME280;10332;50.208;18.988;2023-04-01T13:18:36;96456.75;;;15.67;63.76
20350;BME280;10332;50.208;18.988;2023-04-01T13:24:29;96480.00;;;15.78;63.74
20350;BME280;10332;50.208;18.988;2023-04-01T13:27:23;96459.59;;;15.80;62.50
20350;BME280;10332;50.208;18.988;2023-04-01T13:41:51;96483.09;;;15.27;64.36
20350;BME280;10332;50.208;18.988;2023-04-01T13:44:51;96477.56;;;15.45;64.62
20350;BME280;10332;50.208;18.988;2023-04-01T13:50:55;96498.53;;;14.99;66.10
20350;BME280;10332;50.208;18.988;2023-04-01T13:53:19;96495.97;;;15.22;66.13
20350;BME280;10332;50.208;18.988;2023-04-01T14:05:04;96500.41;;;14.83;70.17
20350;BME280;10332;50.208;18.988;2023-04-01T14:11:31;96499.50;;;14.67;70.82
20350;BME280;10332;50.208;18.988;2023-04-01T14:14:22;96504.72;;;14.75;70.84
20350;BME280;10332;50.208;18.988;2023-04-01T14:17:38;96501.94;;;14.69;71.65
20350;BME280;10332;50.208;18.988;2023-04-01T14:35:33;96518.28;;;13.99;75.23
20350;BME280;10332;50.208;18.988;2023-04-01T14:44:38;96520.41;;;13.71;78.34
20350;BME280;10332;50.208;18.988;2023-04-01T14:50:27;96522.03;;;13.40;78.43
20350;BME280;10332;50.208;18.988;2023-04-01T14:55:53;96523.63;;;13.24;80.29
20350;BME280;10332;50.208;18.988;2023-04-01T14:58:24;96518.88;;;13.28;80.42
20350;BME280;10332;50.208;18.988;2023-04-01T15:01:08;96528.25;;;13.55;79.25
20350;BME280;10332;50.208;18.988;2023-04-01T15:49:20;96564.84;;;15.10;72.65
20350;BME280;10332;50.208;18.988;2023-04-01T15:52:06;96572.31;;;14.90;73.53
20350;BME280;10332;50.208;18.988;2023-04-01T15:55:35;96580.44;;;14.64;75.50
20350;BME280;10332;50.208;18.988;2023-04-01T15:59:09;96574.22;;;14.57;76.20
20350;BME280;10332;50.208;18.988;2023-04-01T16:02:07;96582.09;;;14.40;75.64
20350;BME280;10332;50.208;18.988;2023-04-01T16:10:29;96584.53;;;13.85;76.63
20350;BME280;10332;50.208;18.988;2023-04-01T16:22:30;96576.34;;;13.21;78.21
20350;BME280;10332;50.208;18.988;2023-04-01T16:31:04;96582.78;;;13.01;79.52
20350;BME280;10332;50.208;18.988;2023-04-01T16:36:33;96584.56;;;13.00;79.05
20350;BME280;10332;50.208;18.988;2023-04-01T16:39:28;96592.88;;;12.88;79.98
20350;BME280;10332;50.208;18.988;2023-04-01T16:44:59;96604.13;;;12.80;80.96
20350;BME280;10332;50.208;18.988;2023-04-01T16:47:47;96613.50;;;12.91;80.51
20350;BME280;10332;50.208;18.988;2023-04-01T16:50:21;96621.56;;;12.97;80.84
20350;BME280;10332;50.208;18.988;2023-04-01T16:53:17;96624.03;;;12.99;81.19
20350;BME280;10332;50.208;18.988;2023-04-01T16:55:56;96620.91;;;12.95;81.57
20350;BME280;10332;50.208;18.988;2023-04-01T16:58:43;96630.81;;;12.84;82.10
20350;BME280;10332;50.208;18.988;2023-04-01T17:07:05;96644.78;;;12.66;82.51
20350;BME280;10332;50.208;18.988;2023-04-01T17:10:00;96650.59;;;12.34;84.27
20350;BME280;10332;50.208;18.988;2023-04-01T17:12:44;96656.34;;;12.20;84.38
20350;BME280;10332;50.208;18.988;2023-04-01T17:21:45;96662.31;;;11.94;86.31
20350;BME280;10332;50.208;18.988;2023-04-01T17:24:36;96675.22;;;11.78;87.63
20350;BME280;10332;50.208;18.988;2023-04-01T17:30:33;96682.81;;;11.72;89.26
20350;BME280;10332;50.208;18.988;2023-04-01T17:36:04;96680.19;;;11.72;90.36
20350;BME280;10332;50.208;18.988;2023-04-01T17:50:24;96699.78;;;11.58;92.34
20350;BME280;10332;50.208;18.988;2023-04-01T17:59:35;96716.13;;;11.42;93.61
20350;BME280;10332;50.208;18.988;2023-04-01T18:11:25;96713.00;;;11.29;94.99
20350;BME280;10332;50.208;18.988;2023-04-01T18:17:24;96717.13;;;11.22;95.62
20350;BME280;10332;50.208;18.988;2023-04-01T18:25:52;96726.53;;;11.05;95.63
20350;BME280;10332;50.208;18.988;2023-04-01T18:28:42;96736.81;;;11.16;95.49
20350;BME280;10332;50.208;18.988;2023-04-01T18:31:18;96741.78;;;11.09;94.93
20350;BME280;10332;50.208;18.988;2023-04-01T18:34:12;96743.16;;;11.04;95.40
20350;BME280;10332;50.208;18.988;2023-04-01T18:36:55;96739.03;;;11.01;94.77
20350;BME280;10332;50.208;18.988;2023-04-01T18:39:47;96743.06;;;10.86;94.76
20350;BME280;10332;50.208;18.988;2023-04-01T18:42:55;96744.84;;;10.86;94.53
20350;BME280;10332;50.208;18.988;2023-04-01T18:45:59;96751.84;;;10.85;94.37
20350;BME280;10332;50.208;18.988;2023-04-01T18:49:17;96754.22;;;10.78;94.71
20350;BME280;10332;50.208;18.988;2023-04-01T18:51:57;96754.47;;;10.75;95.09
20350;BME280;10332;50.208;18.988;2023-04-01T18:54:30;96758.31;;;10.81;94.95
20350;BME280;10332;50.208;18.988;2023-04-01T18:57:13;96757.50;;;10.80;95.04
20350;BME280;10332;50.208;18.988;2023-04-01T18:59:56;96763.25;;;10.84;94.67
20350;BME280;10332;50.208;18.988;2023-04-01T19:02:45;96762.97;;;10.87;94.95
20350;BME280;10332;50.208;18.988;2023-04-01T19:05:33;96770.09;;;10.95;94.68
20350;BME280;10332;50.208;18.988;2023-04-01T19:08:34;96779.59;;;11.05;94.69
20350;BME280;10332;50.208;18.988;2023-04-01T19:11:40;96775.59;;;11.11;94.77
20350;BME280;10332;50.208;18.988;2023-04-01T19:17:48;96786.03;;;11.11;94.51
20350;BME280;10332;50.208;18.988;2023-04-01T19:20:39;96788.78;;;11.09;94.78
20350;BME280;10332;50.208;18.988;2023-04-01T19:26:30;96783.88;;;11.06;95.20
20350;BME280;10332;50.208;18.988;2023-04-01T19:32:29;96786.97;;;11.29;94.22
20350;BME280;10332;50.208;18.988;2023-04-01T19:35:29;96787.94;;;11.28;94.34
20350;BME280;10332;50.208;18.988;2023-04-01T19:38:36;96792.47;;;11.26;94.51
20350;BME280;10332;50.208;18.988;2023-04-01T19:41:39;96791.81;;;11.24;94.56
20350;BME280;10332;50.208;18.988;2023-04-01T19:44:50;96800.47;;;11.25;94.62
20350;BME280;10332;50.208;18.988;2023-04-01T19:53:05;96817.63;;;11.27;94.36
20350;BME280;10332;50.208;18.988;2023-04-01T19:55:50;96817.22;;;11.22;94.63
20350;BME280;10332;50.208;18.988;2023-04-01T20:01:43;96818.06;;;11.13;95.42
20350;BME280;10332;50.208;18.988;2023-04-01T20:04:35;96819.97;;;11.21;95.18
20350;BME280;10332;50.208;18.988;2023-04-01T20:07:33;96812.31;;;11.09;95.72
20350;BME280;10332;50.208;18.988;2023-04-01T20:10:21;96822.88;;;11.18;95.45
20350;BME280;10332;50.208;18.988;2023-04-01T20:13:16;96823.16;;;11.24;95.02
20350;BME280;10332;50.208;18.988;2023-04-01T20:16:07;96814.88;;;11.29;94.73
20350;BME280;10332;50.208;18.988;2023-04-01T20:18:52;96821.34;;;11.34;94.53
20350;BME280;10332;50.208;18.988;2023-04-01T20:21:42;96821.19;;;11.36;94.81
20350;BME280;10332;50.208;18.988;2023-04-01T20:24:29;96820.25;;;11.27;94.96
20350;BME280;10332;50.208;18.988;2023-04-01T20:27:15;96823.69;;;11.28;95.16
20350;BME280;10332;50.208;18.988;2023-04-01T20:36:36;96831.94;;;11.33;94.54
20350;BME280;10332;50.208;18.988;2023-04-01T20:43:23;96842.78;;;11.28;94.94
20350;BME280;10332;50.208;18.988;2023-04-01T20:46:20;96846.66;;;11.34;94.57
20350;BME280;10332;50.208;18.988;2023-04-01T20:49:39;96844.56;;;11.37;94.20
20350;BME280;10332;50.208;18.988;2023-04-01T21:06:50;96859.16;;;11.01;96.65
20350;BME280;10332;50.208;18.988;2023-04-01T21:15:26;96862.75;;;11.10;96.61
20350;BME280;10332;50.208;18.988;2023-04-01T21:24:06;96859.03;;;11.03;97.54
20350;BME280;10332;50.208;18.988;2023-04-01T21:32:44;96873.34;;;11.18;97.27
20350;BME280;10332;50.208;18.988;2023-04-01T22:09:31;96885.97;;;11.23;97.06
20350;BME280;10332;50.208;18.988;2023-04-01T22:11:47;96887.50;;;11.25;96.86
20350;BME280;10332;50.208;18.988;2023-04-01T22:14:53;96885.28;;;11.21;97.04
20350;BME280;10332;50.208;18.988;2023-04-01T22:18:00;96895.34;;;11.25;96.74
20350;BME280;10332;50.208;18.988;2023-04-01T22:20:44;96910.03;;;11.26;96.94
20350;BME280;10332;50.208;18.988;2023-04-01T22:23:55;96904.81;;;11.26;96.59
20350;BME280;10332;50.208;18.988;2023-04-01T22:29:33;96914.16;;;11.19;97.57
20350;BME280;10332;50.208;18.988;2023-04-01T22:35:15;96904.00;;;11.26;97.45
20350;BME280;10332;50.208;18.988;2023-04-01T22:43:43;96914.16;;;11.00;98.80
20350;BME280;10332;50.208;18.988;2023-04-01T22:46:50;96916.63;;;11.01;98.63
20350;BME280;10332;50.208;18.988;2023-04-01T22:49:36;96913.34;;;10.99;99.19
20350;BME280;10332;50.208;18.988;2023-04-01T22:55:08;96918.69;;;11.07;98.42
20350;BME280;10332;50.208;18.988;2023-04-01T22:57:50;96921.03;;;11.11;98.29
20350;BME280;10332;50.208;18.988;2023-04-01T23:00:43;96918.69;;;11.07;98.41
20350;BME280;10332;50.208;18.988;2023-04-01T23:03:31;96922.13;;;11.08;98.36
20350;BME280;10332;50.208;18.988;2023-04-01T23:06:03;96920.75;;;11.14;98.44
20350;BME280;10332;50.208;18.988;2023-04-01T23:09:07;96925.44;;;11.10;98.43
20350;BME280;10332;50.208;18.988;2023-04-01T23:11:43;96927.91;;;11.12;98.54
20350;BME280;10332;50.208;18.988;2023-04-01T23:23:22;96923.78;;;11.19;98.62
20350;BME280;10332;50.208;18.988;2023-04-01T23:29:18;96933.69;;;11.44;97.21
20350;BME280;10332;50.208;18.988;2023-04-01T23:31:56;96936.31;;;11.44;97.06
20350;BME280;10332;50.208;18.988;2023-04-01T23:34:29;96940.84;;;11.42;96.91